createdAt,value
2019-05-21T00:02:28.254Z,4.60
2019-05-21T00:04:58.174Z,4.10
2019-05-21T00:07:28.039Z,4.73
2019-05-21T00:09:58.201Z,4.30
2019-05-21T00:12:28.702Z,4.90
2019-05-21T00:14:58.616Z,4.37
2019-05-21T00:17:28.413Z,4.60
2019-05-21T00:19:58.343Z,4.30
2019-05-21T00:22:28.584Z,4.27
2019-05-21T00:24:58.590Z,4.60
2019-05-21T00:27:28.478Z,4.70
2019-05-21T00:30:52.964Z,4.67
2019-05-21T00:34:17.522Z,4.17
2019-05-21T00:37:42.000Z,4.50
2019-05-21T00:41:06.563Z,4.80
2019-05-21T00:43:46.253Z,4.57
2019-05-21T00:46:16.221Z,5.17
2019-05-21T00:48:46.137Z,5.13
2019-05-21T00:51:16.341Z,5.27
2019-05-21T00:53:46.271Z,5.07
2019-05-21T00:56:16.168Z,5.10
2019-05-21T00:58:46.081Z,5.70
2019-05-21T01:01:17.077Z,6.10
2019-05-21T01:03:47.287Z,6.13
2019-05-21T01:06:17.893Z,5.97
2019-05-21T01:08:47.898Z,5.80
2019-05-21T01:11:17.811Z,6.33
2019-05-21T01:13:47.724Z,6.07
2019-05-21T01:16:17.933Z,6.10
2019-05-21T01:18:47.847Z,6.53
2019-05-21T01:21:18.055Z,6.73
2019-05-21T01:23:47.967Z,6.43
2019-05-21T01:26:18.177Z,6.23
2019-05-21T01:28:48.090Z,6.20
2019-05-21T01:31:18.155Z,6.27
2019-05-21T01:33:48.125Z,5.80
2019-05-21T01:36:18.127Z,6.37
2019-05-21T01:38:48.038Z,6.40
2019-05-21T01:41:18.248Z,6.17
2019-05-21T01:43:48.260Z,6.23
2019-05-21T01:46:18.179Z,6.53
2019-05-21T01:48:48.380Z,6.13
2019-05-21T01:51:18.298Z,6.70
2019-05-21T01:53:48.306Z,6.30
2019-05-21T01:56:18.220Z,6.50
2019-05-21T01:58:48.133Z,6.30
2019-05-21T02:01:18.049Z,5.87
2019-05-21T02:03:47.960Z,6.50
2019-05-21T02:06:17.875Z,6.10
2019-05-21T02:08:48.480Z,6.73
2019-05-21T02:11:18.389Z,6.60
2019-05-21T02:13:48.594Z,7.10
2019-05-21T02:16:18.706Z,6.43
2019-05-21T02:18:48.622Z,7.37
2019-05-21T02:21:18.827Z,7.30
2019-05-21T02:23:49.135Z,7.00
2019-05-21T02:26:19.147Z,6.90
2019-05-21T02:28:49.257Z,6.93
2019-05-21T02:31:19.172Z,6.57
2019-05-21T02:33:49.084Z,7.13
2019-05-21T02:36:19.198Z,6.20
2019-05-21T02:38:49.112Z,6.63
2019-05-21T02:41:19.021Z,6.60
2019-05-21T02:43:49.133Z,6.57
2019-05-21T02:46:19.339Z,6.70
2019-05-21T02:48:49.562Z,8.00
2019-05-21T02:51:19.462Z,8.40
2019-05-21T02:53:49.376Z,8.03
2019-05-21T02:56:19.292Z,8.30
2019-05-21T02:58:49.299Z,8.10
2019-05-21T03:01:20.789Z,9.37
2019-05-21T03:03:51.589Z,9.40
2019-05-21T03:06:21.498Z,9.70
2019-05-21T03:08:51.413Z,9.37
2019-05-21T03:11:21.324Z,9.33
2019-05-21T03:13:51.529Z,9.30
2019-05-21T03:16:21.452Z,8.90
2019-05-21T03:18:51.365Z,9.50
2019-05-21T03:21:21.373Z,9.10
2019-05-21T03:23:51.291Z,8.67
2019-05-21T03:26:21.198Z,9.13
2019-05-21T03:28:51.313Z,9.50
2019-05-21T03:31:21.375Z,9.57
2019-05-21T03:33:51.533Z,8.63
2019-05-21T03:36:32.815Z,9.20
2019-05-21T03:38:53.127Z,8.70
2019-05-21T03:41:23.235Z,9.00
2019-05-21T03:43:53.149Z,8.50
2019-05-21T03:46:23.160Z,9.27
2019-05-21T03:48:53.074Z,8.73
2019-05-21T03:51:23.382Z,9.20
2019-05-21T03:53:53.295Z,9.27
2019-05-21T03:56:23.209Z,9.27
2019-05-21T03:58:53.121Z,8.60
2019-05-21T04:01:23.232Z,9.00
2019-05-21T04:03:53.153Z,9.37
2019-05-21T04:06:23.078Z,9.60
2019-05-21T04:08:53.074Z,10.10
2019-05-21T04:11:23.082Z,10.40
2019-05-21T04:13:53.193Z,10.30
2019-05-21T04:16:24.569Z,10.10
2019-05-21T04:18:56.069Z,10.30
2019-05-21T04:21:25.986Z,11.43
2019-05-21T04:23:55.900Z,9.77
2019-05-21T04:26:25.906Z,10.30
2019-05-21T04:28:55.818Z,9.17
2019-05-21T04:31:25.732Z,9.90
2019-05-21T04:33:55.747Z,10.20
2019-05-21T04:36:25.657Z,9.70
2019-05-21T04:38:55.576Z,10.00
2019-05-21T04:41:25.530Z,11.33
2019-05-21T04:43:55.601Z,11.43
2019-05-21T04:46:25.609Z,10.97
2019-05-21T04:48:55.817Z,10.77
2019-05-21T04:51:25.728Z,12.17
2019-05-21T04:53:55.646Z,11.53
2019-05-21T04:56:25.561Z,11.97
2019-05-21T04:58:55.468Z,11.37
2019-05-21T05:01:25.382Z,13.20
2019-05-21T05:03:55.590Z,14.27
2019-05-21T05:06:25.605Z,13.87
2019-05-21T05:08:55.515Z,15.03
2019-05-21T05:11:25.528Z,15.67
2019-05-21T05:13:55.442Z,16.30
2019-05-21T05:16:25.357Z,17.00
2019-05-21T05:18:55.364Z,16.57
2019-05-21T05:21:25.574Z,17.57
2019-05-21T05:23:55.684Z,18.27
2019-05-21T05:26:25.598Z,18.17
2019-05-21T05:28:55.520Z,19.37
2019-05-21T05:31:25.721Z,19.90
2019-05-21T05:33:55.927Z,19.30
2019-05-21T05:36:25.846Z,20.07
2019-05-21T05:38:56.344Z,19.90
2019-05-21T05:41:26.459Z,19.47
2019-05-21T05:43:56.372Z,20.93
2019-05-21T05:46:26.483Z,21.60
2019-05-21T05:49:01.595Z,21.10
2019-05-21T05:51:30.472Z,20.00
2019-05-21T05:54:00.359Z,20.87
2019-05-21T05:56:31.401Z,19.57
2019-05-21T05:59:01.355Z,21.43
2019-05-21T06:01:32.735Z,20.50
2019-05-21T06:04:02.660Z,20.63
2019-05-21T06:06:32.569Z,19.70
2019-05-21T06:09:02.680Z,19.90
2019-05-21T06:11:32.815Z,19.07
2019-05-21T06:14:02.815Z,19.73
2019-05-21T06:16:32.717Z,19.87
2019-05-21T06:19:02.629Z,18.73
2019-05-21T06:21:32.840Z,19.27
2019-05-21T06:24:03.143Z,20.07
2019-05-21T06:26:33.945Z,19.77
2019-05-21T06:29:04.149Z,19.67
2019-05-21T06:31:34.066Z,21.60
2019-05-21T06:34:04.376Z,19.97
2019-05-21T06:36:34.282Z,20.27
2019-05-21T06:39:05.282Z,20.83
2019-05-21T06:41:35.393Z,21.43
2019-05-21T06:44:05.890Z,20.57
2019-05-21T06:46:36.197Z,20.43
2019-05-21T06:49:06.702Z,19.30
2019-05-21T06:51:36.616Z,19.20
2019-05-21T06:54:06.826Z,19.37
2019-05-21T06:56:36.738Z,19.43
2019-05-21T06:59:07.441Z,20.07
2019-05-21T07:01:37.647Z,19.00
2019-05-21T07:04:07.563Z,19.07
2019-05-21T07:06:37.668Z,20.13
2019-05-21T07:09:08.665Z,19.90
2019-05-21T07:11:38.699Z,19.70
2019-05-21T07:14:08.981Z,19.70
2019-05-21T07:16:38.896Z,20.03
2019-05-21T07:19:08.811Z,19.63
2019-05-21T07:21:38.920Z,19.37
2019-05-21T07:24:08.832Z,19.50
2019-05-21T07:26:38.745Z,19.13
2019-05-21T07:29:08.683Z,20.37
2019-05-21T07:31:39.420Z,20.13
2019-05-21T07:34:09.373Z,19.83
2019-05-21T07:36:39.288Z,20.50
2019-05-21T07:39:09.689Z,20.30
2019-05-21T07:41:39.717Z,20.30
2019-05-21T07:44:09.620Z,19.33
2019-05-21T07:46:40.135Z,18.90
2019-05-21T07:49:10.430Z,19.00
2019-05-21T07:51:40.776Z,18.83
2019-05-21T07:54:10.743Z,18.50
2019-05-21T07:56:40.951Z,18.47
2019-05-21T07:59:10.866Z,17.67
2019-05-21T08:01:40.783Z,16.93
2019-05-21T08:04:11.119Z,17.70
2019-05-21T08:06:41.254Z,15.90
2019-05-21T08:09:14.234Z,15.90
2019-05-21T08:11:42.888Z,16.03
2019-05-21T08:14:12.803Z,15.13
2019-05-21T08:16:42.908Z,15.57
2019-05-21T08:19:13.626Z,14.20
2019-05-21T08:21:43.724Z,13.90
2019-05-21T08:24:13.637Z,12.93
2019-05-21T08:26:43.748Z,12.40
2019-05-21T08:29:13.760Z,12.37
2019-05-21T08:31:43.673Z,12.67
2019-05-21T08:34:13.688Z,12.90
2019-05-21T08:36:44.776Z,11.77
2019-05-21T08:39:27.614Z,11.80
2019-05-21T08:41:46.587Z,11.10
2019-05-21T08:44:16.779Z,10.50
2019-05-21T08:46:46.601Z,10.30
2019-05-21T08:49:16.507Z,9.63
2019-05-21T08:51:46.423Z,9.80
2019-05-21T08:54:17.905Z,8.50
2019-05-21T08:56:47.819Z,8.27
2019-05-21T08:59:18.052Z,8.67
2019-05-21T09:01:47.955Z,8.50
2019-05-21T09:04:18.087Z,9.00
2019-05-21T09:06:48.063Z,8.63
2019-05-21T09:09:18.072Z,8.47
2019-05-21T09:11:48.622Z,8.90
2019-05-21T09:14:18.593Z,7.87
2019-05-21T09:16:48.502Z,8.43
2019-05-21T09:19:18.417Z,8.20
2019-05-21T09:21:48.434Z,8.47
2019-05-21T09:24:18.343Z,7.03
2019-05-21T09:26:48.354Z,7.03
2019-05-21T09:29:18.267Z,6.33
2019-05-21T09:31:48.283Z,7.20
2019-05-21T09:34:18.191Z,7.07
2019-05-21T09:36:48.110Z,7.33
2019-05-21T09:39:18.017Z,6.63
2019-05-21T09:41:48.128Z,7.13
2019-05-21T09:44:18.096Z,7.17
2019-05-21T09:46:48.151Z,7.80
2019-05-21T09:49:18.065Z,7.87
2019-05-21T09:51:48.174Z,8.00
2019-05-21T09:54:18.090Z,7.43
2019-05-21T09:56:48.003Z,7.63
2019-05-21T09:59:22.248Z,6.57
2019-05-21T10:02:08.768Z,6.80
2019-05-21T10:04:38.680Z,6.60
2019-05-21T10:07:08.697Z,5.77
2019-05-21T10:09:39.003Z,6.83
2019-05-21T10:12:09.012Z,6.00
2019-05-21T10:14:39.614Z,6.37
2019-05-21T10:17:09.532Z,6.30
2019-05-21T10:19:40.031Z,6.63
2019-05-21T10:22:10.388Z,6.30
2019-05-21T10:24:40.741Z,6.67
2019-05-21T10:27:10.852Z,6.50
2019-05-21T10:29:40.765Z,6.10
2019-05-21T10:32:10.776Z,6.07
2019-05-21T10:34:40.691Z,6.17
2019-05-21T10:37:10.800Z,6.37
2019-05-21T10:39:40.719Z,6.03
2019-05-21T10:42:10.827Z,5.30
2019-05-21T10:44:42.506Z,4.97
2019-05-21T10:47:16.201Z,4.60
2019-05-21T10:49:44.597Z,4.80
2019-05-21T10:52:14.804Z,4.80
2019-05-21T10:54:44.786Z,5.23
2019-05-21T10:57:14.786Z,4.43
2019-05-21T10:59:45.035Z,4.83
2019-05-21T11:02:25.493Z,5.17
2019-05-21T11:04:57.149Z,5.20
2019-05-21T11:07:27.767Z,5.63
2019-05-21T11:09:57.762Z,4.60
2019-05-21T11:12:27.774Z,4.50
2019-05-21T11:14:57.691Z,4.73
2019-05-21T11:17:27.708Z,4.30
2019-05-21T11:19:57.614Z,4.50
2019-05-21T11:22:27.626Z,4.37
2019-05-21T11:24:57.538Z,4.30
2019-05-21T11:27:27.844Z,4.40
2019-05-21T11:29:57.858Z,4.50
2019-05-21T11:32:27.869Z,4.70
2019-05-21T11:34:58.373Z,4.93
2019-05-21T11:37:28.286Z,4.87
2019-05-21T11:39:58.314Z,4.50
2019-05-21T11:42:28.602Z,5.00
2019-05-21T11:44:58.517Z,5.30
2019-05-21T11:47:28.439Z,4.20
2019-05-21T11:49:58.595Z,4.33
2019-05-21T11:52:28.394Z,4.03
2019-05-21T11:54:58.419Z,3.87
2019-05-21T11:57:28.574Z,4.23
2019-05-21T11:59:58.684Z,3.87
2019-05-21T12:02:28.893Z,4.10
2019-05-21T12:04:59.101Z,3.97
2019-05-21T12:07:29.015Z,3.90
2019-05-21T12:09:58.928Z,3.50
2019-05-21T12:12:28.847Z,4.20
2019-05-21T12:14:58.663Z,3.50
2019-05-21T12:17:28.671Z,3.97
2019-05-21T12:19:58.587Z,3.60
2019-05-21T12:22:28.793Z,3.57
2019-05-21T12:24:58.704Z,4.07
2019-05-21T12:27:28.617Z,3.67
2019-05-21T12:29:58.735Z,4.07
2019-05-21T12:32:28.642Z,3.90
2019-05-21T12:34:58.654Z,4.03
2019-05-21T12:37:28.570Z,4.07
2019-05-21T12:39:58.874Z,3.87
2019-05-21T12:42:28.786Z,3.90
2019-05-21T12:44:58.699Z,3.30
2019-05-21T12:47:28.927Z,3.23
2019-05-21T12:49:59.017Z,3.63
2019-05-21T12:52:28.977Z,3.77
2019-05-21T12:54:59.335Z,3.80
2019-05-21T12:57:29.158Z,3.43
2019-05-21T12:59:59.166Z,3.20
2019-05-21T13:02:29.281Z,3.07
2019-05-21T13:04:59.283Z,3.30
2019-05-21T13:07:29.889Z,3.50
2019-05-21T13:09:59.809Z,3.40
2019-05-21T13:12:29.813Z,3.87
2019-05-21T13:14:59.725Z,3.70
2019-05-21T13:17:29.736Z,3.60
2019-05-21T13:19:59.651Z,3.70
2019-05-21T13:22:29.680Z,3.77
2019-05-21T13:24:59.574Z,3.60
2019-05-21T13:27:29.878Z,3.90
2019-05-21T13:30:00.052Z,3.53
2019-05-21T13:32:30.055Z,3.33
2019-05-21T13:35:00.382Z,3.70
2019-05-21T13:37:31.530Z,3.20
2019-05-21T13:40:01.729Z,3.57
2019-05-21T13:42:31.818Z,3.40
2019-05-21T13:45:01.833Z,3.60
2019-05-21T13:47:31.947Z,3.17
2019-05-21T13:50:02.056Z,3.13
2019-05-21T13:52:32.261Z,3.47
2019-05-21T13:55:02.182Z,3.00
2019-05-21T13:57:32.382Z,3.47
2019-05-21T14:00:02.860Z,3.43
2019-05-21T14:02:33.192Z,3.27
2019-05-21T14:05:03.317Z,3.60
2019-05-21T14:07:33.416Z,3.33
2019-05-21T14:10:15.141Z,3.13
2019-05-21T14:12:36.384Z,3.33
2019-05-21T14:15:07.402Z,3.50
2019-05-21T14:17:37.587Z,3.17
2019-05-21T14:20:11.137Z,3.27
2019-05-21T14:22:41.214Z,3.07
2019-05-21T14:25:13.028Z,3.10
2019-05-21T14:27:44.701Z,3.30
2019-05-21T14:30:15.230Z,3.70
2019-05-21T14:32:46.110Z,3.53
2019-05-21T14:35:16.031Z,3.63
2019-05-21T14:37:46.233Z,3.20
2019-05-21T14:40:31.222Z,3.47
2019-05-21T14:43:00.008Z,3.30
2019-05-21T14:45:22.662Z,3.40
2019-05-21T14:47:52.573Z,3.20
2019-05-21T14:50:22.757Z,3.20
2019-05-21T14:52:52.778Z,2.80
2019-05-21T14:55:22.801Z,3.10
2019-05-21T14:57:52.717Z,2.90
2019-05-21T15:00:25.381Z,2.97
2019-05-21T15:02:55.294Z,3.10
2019-05-21T15:05:25.307Z,3.30
2019-05-21T15:07:55.219Z,3.47
2019-05-21T15:10:25.137Z,2.83
2019-05-21T15:12:55.048Z,3.60
2019-05-21T15:15:26.045Z,3.83
2019-05-21T15:17:56.052Z,3.73
2019-05-21T15:20:28.505Z,3.60
2019-05-21T15:22:59.124Z,3.80
2019-05-21T15:25:29.074Z,3.80
2019-05-21T15:27:59.736Z,3.73
2019-05-21T15:30:29.654Z,3.80
2019-05-21T15:32:59.862Z,3.73
2019-05-21T15:35:29.874Z,3.87
2019-05-21T15:37:59.786Z,3.50
2019-05-21T15:40:30.188Z,3.30
2019-05-21T15:43:00.101Z,3.70
2019-05-21T15:45:30.015Z,3.57
2019-05-21T15:48:00.519Z,3.60
2019-05-21T15:50:30.731Z,3.30
2019-05-21T15:53:00.871Z,3.47
2019-05-21T15:55:30.750Z,3.30
2019-05-21T15:58:00.666Z,3.70
2019-05-21T16:00:31.522Z,3.30
2019-05-21T16:03:01.902Z,3.60
2019-05-21T16:05:31.882Z,3.47
2019-05-21T16:08:01.793Z,3.50
2019-05-21T16:10:31.706Z,3.50
2019-05-21T16:13:01.618Z,3.33
2019-05-21T16:15:31.534Z,3.30
2019-05-21T16:18:01.445Z,3.90
2019-05-21T16:20:31.655Z,3.77
2019-05-21T16:23:02.060Z,3.50
2019-05-21T16:25:31.972Z,3.57
2019-05-21T16:28:01.886Z,3.97
2019-05-21T16:30:31.803Z,3.73
2019-05-21T16:33:02.261Z,3.70
2019-05-21T16:35:33.985Z,3.60
2019-05-21T16:38:03.898Z,3.87
2019-05-21T16:40:34.105Z,3.80
2019-05-21T16:43:04.117Z,3.17
2019-05-21T16:45:34.326Z,3.57
2019-05-21T16:48:04.731Z,4.00
2019-05-21T16:50:34.742Z,3.40
2019-05-21T16:53:04.662Z,3.60
2019-05-21T16:55:36.239Z,4.10
2019-05-21T16:58:06.839Z,3.50
2019-05-21T17:00:36.860Z,3.80
2019-05-21T17:03:07.067Z,3.67
2019-05-21T17:05:37.083Z,3.33
2019-05-21T17:08:06.989Z,3.40
2019-05-21T17:10:37.206Z,3.90
2019-05-21T17:13:07.298Z,3.63
2019-05-21T17:15:37.668Z,3.63
2019-05-21T17:18:07.772Z,3.80
2019-05-21T17:20:37.831Z,3.43
2019-05-21T17:23:07.844Z,3.83
2019-05-21T17:25:37.756Z,4.10
2019-05-21T17:28:07.669Z,3.60
2019-05-21T17:30:37.779Z,3.67
2019-05-21T17:33:08.154Z,3.40
2019-05-21T17:35:38.098Z,3.60
2019-05-21T17:38:08.012Z,3.87
2019-05-21T17:40:37.925Z,3.23
2019-05-21T17:43:07.724Z,3.57
2019-05-21T17:45:37.848Z,3.20
2019-05-21T17:48:07.683Z,3.27
2019-05-21T17:50:37.678Z,3.27
2019-05-21T17:53:07.695Z,3.50
2019-05-21T17:55:37.897Z,3.93
2019-05-21T17:58:07.695Z,3.67
2019-05-21T18:00:54.338Z,3.73
2019-05-21T18:03:25.743Z,3.80
2019-05-21T18:05:56.631Z,4.07
2019-05-21T18:08:26.558Z,3.80
2019-05-21T18:10:57.037Z,4.00
2019-05-21T18:13:27.737Z,4.30
2019-05-21T18:16:00.141Z,4.03
2019-05-21T18:18:30.735Z,4.23
2019-05-21T18:21:02.599Z,4.13
2019-05-21T18:23:32.562Z,4.17
2019-05-21T18:26:03.211Z,3.93
2019-05-21T18:28:33.669Z,4.17
2019-05-21T18:31:05.789Z,3.83
2019-05-21T18:33:37.060Z,4.00
2019-05-21T18:36:08.039Z,4.10
2019-05-21T18:38:38.824Z,4.30
2019-05-21T18:41:10.003Z,3.87
2019-05-21T18:43:39.968Z,3.90
2019-05-21T18:46:10.177Z,4.10
2019-05-21T18:48:40.777Z,4.30
2019-05-21T18:51:10.818Z,4.10
2019-05-21T18:53:40.899Z,4.23
2019-05-21T18:56:10.813Z,4.27
2019-05-21T18:58:41.225Z,4.00
2019-05-21T19:01:11.428Z,4.67
2019-05-21T19:03:41.547Z,4.60
2019-05-21T19:06:11.646Z,4.30
2019-05-21T19:08:41.560Z,4.10
2019-05-21T19:11:11.768Z,4.27
2019-05-21T19:13:41.876Z,4.60
2019-05-21T19:16:11.791Z,4.20
2019-05-21T19:18:41.720Z,4.70
2019-05-21T19:21:12.206Z,4.60
2019-05-21T19:23:42.416Z,4.63
2019-05-21T19:26:12.328Z,4.63
2019-05-21T19:28:42.245Z,4.30
2019-05-21T19:31:12.255Z,4.60
2019-05-21T19:33:42.593Z,4.50
2019-05-21T19:36:12.573Z,4.93
2019-05-21T19:38:42.484Z,4.90
2019-05-21T19:41:13.051Z,4.77
2019-05-21T19:43:43.591Z,5.27
2019-05-21T19:46:13.503Z,5.20
2019-05-21T19:48:43.417Z,4.90
2019-05-21T19:51:13.759Z,5.00
2019-05-21T19:53:43.843Z,4.93
2019-05-21T19:56:14.139Z,5.37
2019-05-21T19:58:44.052Z,5.37
2019-05-21T20:01:14.163Z,5.60
2019-05-21T20:03:44.725Z,5.57
2019-05-21T20:06:16.749Z,5.30
2019-05-21T20:08:46.965Z,6.17
2019-05-21T20:11:18.240Z,6.07
2019-05-21T20:13:48.155Z,5.70
2019-05-21T20:16:19.155Z,5.63
2019-05-21T20:18:49.161Z,5.40
2019-05-21T20:21:20.273Z,5.13
2019-05-21T20:23:51.642Z,5.73
2019-05-21T20:26:23.717Z,6.27
2019-05-21T20:28:54.660Z,6.73
2019-05-21T20:31:25.119Z,7.70
2019-05-21T20:33:55.521Z,6.90
2019-05-21T20:36:25.828Z,7.70
2019-05-21T20:38:56.331Z,8.03
2019-05-21T20:41:26.834Z,8.00
2019-05-21T20:43:59.300Z,7.77
2019-05-21T20:46:29.513Z,7.13
2019-05-21T20:49:00.910Z,7.00
2019-05-21T20:51:31.698Z,6.50
2019-05-21T20:54:02.700Z,6.30
2019-05-21T20:56:33.296Z,6.47
2019-05-21T20:59:03.699Z,7.00
2019-05-21T21:01:34.698Z,6.97
2019-05-21T21:04:05.248Z,7.00
2019-05-21T21:06:36.448Z,7.50
2019-05-21T21:09:10.556Z,7.63
2019-05-21T21:11:41.946Z,6.97
2019-05-21T21:14:18.038Z,7.40
2019-05-21T21:16:46.659Z,6.70
2019-05-21T21:19:16.769Z,7.30
2019-05-21T21:21:46.715Z,6.90
2019-05-21T21:24:17.383Z,7.17
2019-05-21T21:26:47.590Z,6.80
2019-05-21T21:29:17.502Z,6.97
2019-05-21T21:31:47.958Z,7.40
2019-05-21T21:34:18.511Z,7.07
2019-05-21T21:36:53.187Z,7.40
2019-05-21T21:39:21.778Z,7.40
2019-05-21T21:41:52.310Z,7.57
2019-05-21T21:44:33.472Z,7.60
2019-05-21T21:46:55.254Z,7.30
2019-05-21T21:49:25.854Z,7.53
2019-05-21T21:51:56.457Z,7.53
2019-05-21T21:54:26.761Z,7.63
2019-05-21T21:56:56.873Z,7.50
2019-05-21T21:59:26.786Z,8.07
2019-05-21T22:02:03.751Z,7.53
2019-05-21T22:04:36.273Z,7.17
2019-05-21T22:07:07.339Z,7.50
2019-05-21T22:09:39.120Z,6.57
2019-05-21T22:12:10.607Z,7.87
2019-05-21T22:14:50.420Z,7.13
2019-05-21T22:17:15.546Z,6.90
2019-05-21T22:19:45.851Z,7.80
2019-05-21T22:22:16.157Z,7.47
2019-05-21T22:24:46.171Z,6.93
2019-05-21T22:27:16.279Z,7.60
2019-05-21T22:29:46.303Z,7.47
2019-05-21T22:32:16.896Z,7.53
2019-05-21T22:34:47.398Z,7.80
2019-05-21T22:37:18.981Z,7.60
2019-05-21T22:39:49.487Z,7.53
2019-05-21T22:42:19.593Z,7.73
2019-05-21T22:45:06.826Z,7.77
2019-05-21T22:47:23.453Z,8.00
2019-05-21T22:49:54.347Z,8.00
2019-05-21T22:52:24.655Z,7.93
2019-05-21T22:54:54.958Z,7.80
2019-05-21T22:57:26.280Z,8.07
2019-05-21T22:59:56.556Z,7.90
2019-05-21T23:02:27.923Z,8.13
2019-05-21T23:04:58.152Z,8.73
2019-05-21T23:07:28.133Z,8.23
2019-05-21T23:09:59.541Z,8.13
2019-05-21T23:12:31.140Z,8.43
2019-05-21T23:15:01.249Z,8.50
2019-05-21T23:17:32.635Z,7.87
2019-05-21T23:20:05.794Z,8.30
2019-05-21T23:22:36.196Z,8.03
2019-05-21T23:25:08.077Z,8.13
2019-05-21T23:27:39.466Z,8.17
2019-05-21T23:30:12.719Z,8.17
2019-05-21T23:32:44.011Z,8.07
2019-05-21T23:35:14.517Z,8.27
2019-05-21T23:37:47.534Z,8.53
2019-05-21T23:40:17.831Z,8.23
2019-05-21T23:42:47.990Z,8.47
2019-05-21T23:45:18.788Z,8.67
2019-05-21T23:47:49.598Z,9.23
2019-05-21T23:50:21.072Z,8.80
2019-05-21T23:52:52.771Z,8.60
2019-05-21T23:55:23.257Z,8.27
2019-05-21T23:57:54.056Z,8.60
